Sunset Beach, North Carolina
Current Conditions -  °F | °C
As of 10:53 AM on Wednesday 22 Oct 2014 (Local Time) from KCRE Reporting Station
Clear Clear  
Wind Chill: 61°   Ceiling: Unl
Heat Index: 61°   Visibility: 10mi
Dew Point: 43°   Wind: 9mph
Humidity: 52%   Direction: 360°N
Pressure: 30"   Gusts: NA
Location:  33.87°N, 78.51°W
Report Text: KCRE 221453Z 36008KT 10SM CLR 16/06 A3000 RMK AO1 SLP161 T01610061 50009
Loading
Personal Weather Stations






























Interactive Weather Map
Tropical Storm Tracking
New forecast layout! Learn more

10-Day Weather Forecast

Advertisements
Track Severe Weather on mobile